createdAt,value
2019-05-20T00:01:57.853Z,15.90
2019-05-20T00:04:29.801Z,15.76
2019-05-20T00:07:01.634Z,15.83
2019-05-20T00:09:33.599Z,15.72
2019-05-20T00:12:05.392Z,15.73
2019-05-20T00:14:37.288Z,15.68
2019-05-20T00:17:09.107Z,15.72
2019-05-20T00:19:41.009Z,15.96
2019-05-20T00:22:12.843Z,15.94
2019-05-20T00:24:44.704Z,15.91
2019-05-20T00:27:16.593Z,15.88
2019-05-20T00:29:48.527Z,15.70
2019-05-20T00:32:20.348Z,15.74
2019-05-20T00:34:52.267Z,15.75
2019-05-20T00:37:24.159Z,15.64
2019-05-20T00:39:56.039Z,15.62
2019-05-20T00:42:28.160Z,15.61
2019-05-20T00:45:00.061Z,15.55
2019-05-20T00:47:31.967Z,15.42
2019-05-20T00:50:03.843Z,15.33
2019-05-20T00:52:35.629Z,15.23
2019-05-20T00:55:08.009Z,15.18
2019-05-20T00:57:39.201Z,15.13
2019-05-20T01:00:11.284Z,15.10
2019-05-20T01:02:56.079Z,15.01
2019-05-20T01:05:16.844Z,14.94
2019-05-20T01:07:48.773Z,14.85
2019-05-20T01:10:20.713Z,14.79
2019-05-20T01:12:52.574Z,14.78
2019-05-20T01:15:23.863Z,14.81
2019-05-20T01:17:55.760Z,14.75
2019-05-20T01:20:27.609Z,14.56
2019-05-20T01:22:59.463Z,14.56
2019-05-20T01:25:31.310Z,14.57
2019-05-20T01:28:03.219Z,14.48
2019-05-20T01:30:35.110Z,14.43
2019-05-20T01:33:13.657Z,14.43
2019-05-20T01:35:40.493Z,14.35
2019-05-20T01:38:12.446Z,14.20
2019-05-20T01:40:45.026Z,14.23
2019-05-20T01:43:17.814Z,14.23
2019-05-20T01:45:49.750Z,14.23
2019-05-20T01:48:21.560Z,14.17
2019-05-20T01:50:53.433Z,14.13
2019-05-20T01:53:25.310Z,14.30
2019-05-20T01:55:57.144Z,14.26
2019-05-20T01:58:28.977Z,14.15
2019-05-20T02:01:00.872Z,14.15
2019-05-20T02:03:32.782Z,14.07
2019-05-20T02:06:04.650Z,14.09
2019-05-20T02:08:36.503Z,14.16
2019-05-20T02:11:08.353Z,14.07
2019-05-20T02:14:11.394Z,13.90
2019-05-20T02:16:43.290Z,13.81
2019-05-20T02:19:15.172Z,13.94
2019-05-20T02:21:46.988Z,13.85
2019-05-20T02:24:18.851Z,13.76
2019-05-20T02:26:50.786Z,13.73
2019-05-20T02:29:22.660Z,14.07
2019-05-20T02:31:54.503Z,14.03
2019-05-20T02:34:26.577Z,14.08
2019-05-20T02:36:58.380Z,14.04
2019-05-20T02:39:30.256Z,14.10
2019-05-20T02:42:02.119Z,14.03
2019-05-20T02:44:33.324Z,14.00
2019-05-20T02:47:05.112Z,13.91
2019-05-20T02:49:37.031Z,13.69
2019-05-20T02:52:08.850Z,13.63
2019-05-20T02:54:40.757Z,13.47
2019-05-20T02:57:12.915Z,13.63
2019-05-20T02:59:44.143Z,13.65
2019-05-20T03:02:15.964Z,13.75
2019-05-20T03:04:48.799Z,13.67
2019-05-20T03:07:20.665Z,13.62
2019-05-20T03:09:52.716Z,13.57
2019-05-20T03:12:24.544Z,13.42
2019-05-20T03:14:56.415Z,13.28
2019-05-20T03:17:28.283Z,13.25
2019-05-20T03:20:00.130Z,13.17
2019-05-20T03:22:32.046Z,13.14
2019-05-20T03:25:03.959Z,13.20
2019-05-20T03:27:35.944Z,13.21
2019-05-20T03:30:08.847Z,13.23
2019-05-20T03:32:40.764Z,13.24
2019-05-20T03:35:13.015Z,13.23
2019-05-20T03:37:44.868Z,13.26
2019-05-20T03:40:16.872Z,13.21
2019-05-20T03:42:48.725Z,13.27
2019-05-20T03:45:20.598Z,13.25
2019-05-20T03:47:52.474Z,13.25
2019-05-20T03:50:24.345Z,13.41
2019-05-20T03:52:57.644Z,13.53
2019-05-20T03:55:29.502Z,13.71
2019-05-20T03:58:01.436Z,13.83
2019-05-20T04:00:58.354Z,14.02
2019-05-20T04:03:30.216Z,14.17
2019-05-20T04:06:02.148Z,14.19
2019-05-20T04:08:33.950Z,14.17
2019-05-20T04:11:05.917Z,14.18
2019-05-20T04:13:37.749Z,14.23
2019-05-20T04:16:09.536Z,14.30
2019-05-20T04:18:41.438Z,14.35
2019-05-20T04:21:13.262Z,14.40
2019-05-20T04:23:45.132Z,14.56
2019-05-20T04:26:17.035Z,14.78
2019-05-20T04:28:48.914Z,15.03
2019-05-20T04:31:20.794Z,15.12
2019-05-20T04:33:53.645Z,15.24
2019-05-20T04:36:25.486Z,15.29
2019-05-20T04:38:58.314Z,15.33
2019-05-20T04:41:30.383Z,15.72
2019-05-20T04:44:02.330Z,15.94
2019-05-20T04:46:34.360Z,16.01
2019-05-20T04:49:05.563Z,15.61
2019-05-20T04:51:37.447Z,15.72
2019-05-20T04:54:09.538Z,15.90
2019-05-20T04:56:41.367Z,15.84
2019-05-20T04:59:13.387Z,15.78
2019-05-20T05:01:45.621Z,15.80
2019-05-20T05:04:18.099Z,15.87
2019-05-20T05:06:50.557Z,16.00
2019-05-20T05:09:22.986Z,16.13
2019-05-20T05:11:55.369Z,15.85
2019-05-20T05:14:27.352Z,15.84
2019-05-20T05:16:59.217Z,15.89
2019-05-20T05:19:31.705Z,15.75
2019-05-20T05:22:06.613Z,15.76
2019-05-20T05:24:38.548Z,15.90
2019-05-20T05:27:10.222Z,16.21
2019-05-20T05:29:45.520Z,16.49
2019-05-20T05:32:20.009Z,16.53
2019-05-20T05:34:52.048Z,16.72
2019-05-20T05:37:24.063Z,16.80
2019-05-20T05:39:56.025Z,17.19
2019-05-20T05:42:28.087Z,17.45
2019-05-20T05:45:00.081Z,17.41
2019-05-20T05:47:32.019Z,17.93
2019-05-20T05:50:05.979Z,18.20
2019-05-20T05:52:37.855Z,18.14
2019-05-20T05:55:09.791Z,17.88
2019-05-20T05:57:41.613Z,17.87
2019-05-20T06:00:13.616Z,17.63
2019-05-20T06:02:45.441Z,17.12
2019-05-20T06:05:17.491Z,17.24
2019-05-20T06:07:50.270Z,17.42
2019-05-20T06:10:23.014Z,17.11
2019-05-20T06:12:54.823Z,17.61
2019-05-20T06:15:27.855Z,18.08
2019-05-20T06:17:59.653Z,17.54
2019-05-20T06:20:30.847Z,17.78
2019-05-20T06:23:02.621Z,17.62
2019-05-20T06:25:34.473Z,18.02
2019-05-20T06:28:06.292Z,18.84
2019-05-20T06:30:44.819Z,19.18
2019-05-20T06:33:16.707Z,18.78
2019-05-20T06:35:49.279Z,19.88
2019-05-20T06:38:42.901Z,19.61
2019-05-20T06:41:14.086Z,19.46
2019-05-20T06:43:45.900Z,19.05
2019-05-20T06:46:17.707Z,19.06
2019-05-20T06:48:49.627Z,19.04
2019-05-20T06:51:20.776Z,18.87
2019-05-20T06:53:53.700Z,18.67
2019-05-20T06:56:25.547Z,18.70
2019-05-20T06:58:57.448Z,18.60
2019-05-20T07:01:29.271Z,18.41
2019-05-20T07:04:01.128Z,18.45
2019-05-20T07:06:45.411Z,18.83
2019-05-20T07:09:08.246Z,18.96
2019-05-20T07:11:40.108Z,18.96
2019-05-20T07:14:12.030Z,18.59
2019-05-20T07:16:43.980Z,18.64
2019-05-20T07:19:15.351Z,18.84
2019-05-20T07:21:48.287Z,18.85
2019-05-20T07:24:19.483Z,18.64
2019-05-20T07:26:51.500Z,18.70
2019-05-20T07:29:23.412Z,19.02
2019-05-20T07:31:55.248Z,19.13
2019-05-20T07:34:27.152Z,18.99
2019-05-20T07:37:03.138Z,19.15
2019-05-20T07:39:32.790Z,19.06
2019-05-20T07:42:04.796Z,19.12
2019-05-20T07:44:36.685Z,19.18
2019-05-20T07:47:11.218Z,19.15
2019-05-20T07:49:44.521Z,18.89
2019-05-20T07:52:16.768Z,18.98
2019-05-20T07:54:50.306Z,19.32
2019-05-20T07:57:25.193Z,19.57
2019-05-20T07:59:58.344Z,19.76
2019-05-20T08:02:32.265Z,19.68
2019-05-20T08:05:04.462Z,19.56
2019-05-20T08:07:51.238Z,19.67
2019-05-20T08:10:10.640Z,19.84
2019-05-20T08:12:42.643Z,20.23
2019-05-20T08:15:16.154Z,20.72
2019-05-20T08:17:48.210Z,20.47
2019-05-20T08:20:21.686Z,20.21
2019-05-20T08:22:53.582Z,20.90
2019-05-20T08:25:25.523Z,20.88
2019-05-20T08:27:57.498Z,20.93
2019-05-20T08:30:35.688Z,21.21
2019-05-20T08:33:07.739Z,22.47
2019-05-20T08:35:40.592Z,23.08
2019-05-20T08:38:12.475Z,22.61
2019-05-20T08:40:48.294Z,22.96
2019-05-20T08:43:18.154Z,23.43
2019-05-20T08:45:50.094Z,22.61
2019-05-20T08:48:22.965Z,23.02
2019-05-20T08:50:54.889Z,22.71
2019-05-20T08:53:26.114Z,22.98
2019-05-20T08:55:57.899Z,22.92
2019-05-20T08:58:29.741Z,24.55
2019-05-20T09:01:01.619Z,23.50
2019-05-20T09:03:33.626Z,24.62
2019-05-20T09:06:05.557Z,25.31
2019-05-20T09:08:37.534Z,24.69
2019-05-20T09:11:08.727Z,24.33
2019-05-20T09:13:40.789Z,24.64
2019-05-20T09:16:12.750Z,23.79
2019-05-20T09:18:44.693Z,24.99
2019-05-20T09:21:16.627Z,25.39
2019-05-20T09:23:48.588Z,25.73
2019-05-20T09:26:21.646Z,25.87
2019-05-20T09:28:53.664Z,24.10
2019-05-20T09:31:25.970Z,23.90
2019-05-20T09:33:58.055Z,24.03
2019-05-20T09:36:29.987Z,22.91
2019-05-20T09:39:01.821Z,22.50
2019-05-20T09:41:35.307Z,22.93
2019-05-20T09:44:08.334Z,23.45
2019-05-20T09:46:40.156Z,23.19
2019-05-20T09:49:13.031Z,23.93
2019-05-20T09:51:44.940Z,24.24
2019-05-20T09:54:17.657Z,24.97
2019-05-20T09:56:49.617Z,25.19
2019-05-20T09:59:21.542Z,26.23
2019-05-20T10:01:53.420Z,26.23
2019-05-20T10:04:24.600Z,27.07
2019-05-20T10:06:56.339Z,27.43
2019-05-20T10:09:28.214Z,28.10
2019-05-20T10:12:00.095Z,28.21
2019-05-20T10:14:31.296Z,28.17
2019-05-20T10:17:03.226Z,26.64
2019-05-20T10:19:35.138Z,26.34
2019-05-20T10:22:07.029Z,25.81
2019-05-20T10:24:38.945Z,25.47
2019-05-20T10:27:10.846Z,25.39
2019-05-20T10:29:42.733Z,25.05
2019-05-20T10:32:14.585Z,24.44
2019-05-20T10:34:47.516Z,24.50
2019-05-20T10:37:19.357Z,24.13
2019-05-20T10:39:51.262Z,23.35
2019-05-20T10:42:24.081Z,23.27
2019-05-20T10:44:56.023Z,23.77
2019-05-20T10:47:27.938Z,24.06
2019-05-20T10:49:59.873Z,24.11
2019-05-20T10:52:31.672Z,24.37
2019-05-20T10:55:04.296Z,24.74
2019-05-20T10:57:36.151Z,24.26
2019-05-20T11:00:09.819Z,24.65
2019-05-20T11:02:41.615Z,25.04
2019-05-20T11:05:14.731Z,24.07
2019-05-20T11:07:46.638Z,24.25
2019-05-20T11:10:18.758Z,23.27
2019-05-20T11:12:50.557Z,22.59
2019-05-20T11:15:22.419Z,22.57
2019-05-20T11:17:54.414Z,22.39
2019-05-20T11:20:27.272Z,22.35
2019-05-20T11:23:01.142Z,22.66
2019-05-20T11:25:32.806Z,23.43
2019-05-20T11:28:04.766Z,23.14
2019-05-20T11:30:36.629Z,23.21
2019-05-20T11:33:08.468Z,23.03
2019-05-20T11:35:41.489Z,22.99
2019-05-20T11:38:13.458Z,22.86
2019-05-20T11:40:45.464Z,22.58
2019-05-20T11:43:17.359Z,22.43
2019-05-20T11:45:49.840Z,22.42
2019-05-20T11:48:21.646Z,21.95
2019-05-20T11:50:53.503Z,21.75
2019-05-20T11:53:25.323Z,21.78
2019-05-20T11:55:57.167Z,21.74
2019-05-20T11:58:29.023Z,21.77
2019-05-20T12:01:00.865Z,21.95
2019-05-20T12:03:32.683Z,22.27
2019-05-20T12:06:04.982Z,22.62
2019-05-20T12:08:37.196Z,22.56
2019-05-20T12:11:09.110Z,22.11
2019-05-20T12:13:41.051Z,21.63
2019-05-20T12:16:13.948Z,21.40
2019-05-20T12:18:45.885Z,21.48
2019-05-20T12:21:17.052Z,21.75
2019-05-20T12:23:48.809Z,22.06
2019-05-20T12:26:22.700Z,22.37
2019-05-20T12:28:54.211Z,22.44
2019-05-20T12:31:26.111Z,22.41
2019-05-20T12:33:58.052Z,22.64
2019-05-20T12:36:29.946Z,22.63
2019-05-20T12:39:01.134Z,22.44
2019-05-20T12:41:34.487Z,22.41
2019-05-20T12:44:11.654Z,22.58
2019-05-20T12:46:40.430Z,22.63
2019-05-20T12:49:12.433Z,22.53
2019-05-20T12:51:46.728Z,22.23
2019-05-20T12:54:18.610Z,21.74
2019-05-20T12:56:50.457Z,21.61
2019-05-20T12:59:22.361Z,21.59
2019-05-20T13:01:54.197Z,21.23
2019-05-20T13:04:26.984Z,21.10
2019-05-20T13:06:58.829Z,20.92
2019-05-20T13:09:30.684Z,20.68
2019-05-20T13:12:02.982Z,20.42
2019-05-20T13:14:34.867Z,20.26
2019-05-20T13:17:06.722Z,20.14
2019-05-20T13:19:38.661Z,19.92
2019-05-20T13:22:10.590Z,19.80
2019-05-20T13:24:42.561Z,19.90
2019-05-20T13:27:14.371Z,19.77
2019-05-20T13:29:46.236Z,19.53
2019-05-20T13:32:17.363Z,19.44
2019-05-20T13:34:51.694Z,19.25
2019-05-20T13:37:23.625Z,19.14
2019-05-20T13:40:03.385Z,19.06
2019-05-20T13:42:40.328Z,18.98
2019-05-20T13:45:13.318Z,18.88
2019-05-20T13:47:45.304Z,18.81
2019-05-20T13:50:17.682Z,18.73
2019-05-20T13:52:48.970Z,18.58
2019-05-20T13:55:20.063Z,18.43
2019-05-20T13:57:52.251Z,18.28
2019-05-20T14:00:24.089Z,18.02
2019-05-20T14:02:55.918Z,18.01
2019-05-20T14:05:30.404Z,17.85
2019-05-20T14:08:01.999Z,18.03
2019-05-20T14:10:33.821Z,18.10
2019-05-20T14:13:05.745Z,18.18
2019-05-20T14:15:37.597Z,18.23
2019-05-20T14:18:09.458Z,18.31
2019-05-20T14:20:41.820Z,17.99
2019-05-20T14:23:14.334Z,18.07
2019-05-20T14:25:46.795Z,18.36
2019-05-20T14:28:19.031Z,18.28
2019-05-20T14:30:50.491Z,18.44
2019-05-20T14:33:21.861Z,18.88
2019-05-20T14:35:53.154Z,19.20
2019-05-20T14:38:26.133Z,19.64
2019-05-20T14:40:59.373Z,19.98
2019-05-20T14:43:32.288Z,19.81
2019-05-20T14:46:04.223Z,19.75
2019-05-20T14:48:37.441Z,20.19
2019-05-20T14:51:10.229Z,20.54
2019-05-20T14:53:42.426Z,20.14
2019-05-20T14:56:14.456Z,19.64
2019-05-20T14:58:46.415Z,19.41
2019-05-20T15:01:18.490Z,19.40
2019-05-20T15:03:50.505Z,19.46
2019-05-20T15:06:24.286Z,19.43
2019-05-20T15:08:56.359Z,19.41
2019-05-20T15:11:37.826Z,19.40
2019-05-20T15:14:01.953Z,19.40
2019-05-20T15:16:33.148Z,19.49
2019-05-20T15:19:08.092Z,19.57
2019-05-20T15:21:39.363Z,19.74
2019-05-20T15:24:16.727Z,20.02
2019-05-20T15:26:44.795Z,20.12
2019-05-20T15:29:27.618Z,20.21
2019-05-20T15:31:50.659Z,20.37
2019-05-20T15:34:22.681Z,20.39
2019-05-20T15:36:55.701Z,20.15
2019-05-20T15:39:34.010Z,19.86
2019-05-20T15:42:05.928Z,19.57
2019-05-20T15:44:37.883Z,19.52
2019-05-20T15:47:09.739Z,19.50
2019-05-20T15:49:42.951Z,19.64
2019-05-20T15:52:14.149Z,19.73
2019-05-20T15:54:47.553Z,19.77
2019-05-20T15:57:19.497Z,19.77
2019-05-20T15:59:51.327Z,19.70
2019-05-20T16:02:23.172Z,19.74
2019-05-20T16:04:55.000Z,19.62
2019-05-20T16:07:26.890Z,19.56
2019-05-20T16:10:01.267Z,19.50
2019-05-20T16:12:34.483Z,19.59
2019-05-20T16:15:08.491Z,19.76
2019-05-20T16:17:40.973Z,19.83
2019-05-20T16:20:13.077Z,19.81
2019-05-20T16:22:45.091Z,19.71
2019-05-20T16:25:18.676Z,19.54
2019-05-20T16:27:52.643Z,19.33
2019-05-20T16:30:26.553Z,19.08
2019-05-20T16:33:00.397Z,18.96
2019-05-20T16:35:34.445Z,18.81
2019-05-20T16:38:06.922Z,18.87
2019-05-20T16:40:38.858Z,19.01
2019-05-20T16:43:10.238Z,19.08
2019-05-20T16:45:42.107Z,19.14
2019-05-20T16:48:14.143Z,19.24
2019-05-20T16:50:45.366Z,19.22
2019-05-20T16:53:17.199Z,19.13
2019-05-20T16:55:48.455Z,18.99
2019-05-20T16:58:19.693Z,18.76
2019-05-20T17:00:51.539Z,18.61
2019-05-20T17:03:25.281Z,18.46
2019-05-20T17:05:57.167Z,18.38
2019-05-20T17:08:28.572Z,18.40
2019-05-20T17:11:02.613Z,18.56
2019-05-20T17:13:38.795Z,18.90
2019-05-20T17:16:12.273Z,19.34
2019-05-20T17:18:45.092Z,19.94
2019-05-20T17:21:17.049Z,20.76
2019-05-20T17:23:49.052Z,21.24
2019-05-20T17:26:23.374Z,21.57
2019-05-20T17:28:59.072Z,21.81
2019-05-20T17:31:32.746Z,21.59
2019-05-20T17:34:08.414Z,21.22
2019-05-20T17:36:41.681Z,20.79
2019-05-20T17:39:16.242Z,20.21
2019-05-20T17:41:53.759Z,19.84
2019-05-20T17:44:21.665Z,19.57
2019-05-20T17:46:54.713Z,19.36
2019-05-20T17:49:30.924Z,19.14
2019-05-20T17:52:06.777Z,18.97
2019-05-20T17:54:38.890Z,18.79
2019-05-20T17:57:14.250Z,18.66
2019-05-20T17:59:49.493Z,18.58
2019-05-20T18:02:23.710Z,18.53
2019-05-20T18:04:59.735Z,18.41
2019-05-20T18:07:32.243Z,18.34
2019-05-20T18:10:05.018Z,18.15
2019-05-20T18:12:37.089Z,17.86
2019-05-20T18:15:09.211Z,17.59
2019-05-20T18:17:47.093Z,17.34
2019-05-20T18:20:23.974Z,17.08
2019-05-20T18:23:00.680Z,16.83
2019-05-20T18:25:32.680Z,16.57
2019-05-20T18:28:04.780Z,16.36
2019-05-20T18:30:36.617Z,16.20
2019-05-20T18:33:08.680Z,16.05
2019-05-20T18:35:40.000Z,15.95
2019-05-20T18:38:13.245Z,15.86
2019-05-20T18:40:48.939Z,15.78
2019-05-20T18:43:26.395Z,15.66
2019-05-20T18:46:04.918Z,15.52
2019-05-20T18:48:37.063Z,15.40
2019-05-20T18:51:09.158Z,15.31
2019-05-20T18:53:40.523Z,15.19
2019-05-20T18:56:12.754Z,15.10
2019-05-20T18:58:44.894Z,15.01
2019-05-20T19:01:19.559Z,14.93
2019-05-20T19:03:50.516Z,14.86
2019-05-20T19:06:22.517Z,14.81
2019-05-20T19:08:56.146Z,14.74
2019-05-20T19:11:28.177Z,14.71
2019-05-20T19:14:00.201Z,14.59
2019-05-20T19:16:32.247Z,14.51
2019-05-20T19:19:03.618Z,14.47
2019-05-20T19:21:35.430Z,14.42
2019-05-20T19:24:07.629Z,14.56
2019-05-20T19:26:39.043Z,14.45
2019-05-20T19:29:11.156Z,14.33
2019-05-20T19:31:43.151Z,14.28
2019-05-20T19:34:17.118Z,14.25
2019-05-20T19:36:49.273Z,14.79
2019-05-20T19:39:21.217Z,14.63
2019-05-20T19:41:55.568Z,14.50
2019-05-20T19:44:27.560Z,14.39
2019-05-20T19:46:59.883Z,14.31
2019-05-20T19:49:31.218Z,14.31
2019-05-20T19:52:03.270Z,14.28
2019-05-20T19:54:35.286Z,14.24
2019-05-20T19:57:07.342Z,14.19
2019-05-20T19:59:39.452Z,14.14
2019-05-20T20:02:17.564Z,14.05
2019-05-20T20:04:44.006Z,13.95
2019-05-20T20:07:15.400Z,13.92
2019-05-20T20:09:47.403Z,13.91
2019-05-20T20:12:19.454Z,13.87
2019-05-20T20:14:51.468Z,13.85
2019-05-20T20:17:23.676Z,13.78
2019-05-20T20:19:58.144Z,13.71
2019-05-20T20:22:29.681Z,13.67
2019-05-20T20:25:01.775Z,13.63
2019-05-20T20:27:34.033Z,13.66
2019-05-20T20:30:06.312Z,13.69
2019-05-20T20:32:40.097Z,13.76
2019-05-20T20:35:11.736Z,13.76
2019-05-20T20:37:43.713Z,13.65
2019-05-20T20:40:15.900Z,13.56
2019-05-20T20:42:47.228Z,13.54
2019-05-20T20:45:19.100Z,13.54
2019-05-20T20:47:51.180Z,13.51
2019-05-20T20:50:23.189Z,13.55
2019-05-20T20:52:55.205Z,13.78
2019-05-20T20:55:26.662Z,13.71
2019-05-20T20:57:58.563Z,13.80
2019-05-20T21:00:30.591Z,13.85
2019-05-20T21:03:01.865Z,13.90
2019-05-20T21:05:33.145Z,13.81
2019-05-20T21:08:05.042Z,13.75
2019-05-20T21:10:36.990Z,13.76
2019-05-20T21:13:08.830Z,13.74
2019-05-20T21:15:40.732Z,13.71
2019-05-20T21:18:12.013Z,13.60
2019-05-20T21:20:43.844Z,13.54
2019-05-20T21:23:15.685Z,13.53
2019-05-20T21:25:47.525Z,13.52
2019-05-20T21:28:19.564Z,13.55
2019-05-20T21:30:51.400Z,13.55
2019-05-20T21:33:23.318Z,13.44
2019-05-20T21:35:55.138Z,13.47
2019-05-20T21:38:28.021Z,13.57
2019-05-20T21:41:06.414Z,13.51
2019-05-20T21:43:38.335Z,13.49
2019-05-20T21:46:10.284Z,13.45
2019-05-20T21:48:42.160Z,13.32
2019-05-20T21:51:14.100Z,13.22
2019-05-20T21:53:45.970Z,13.16
2019-05-20T21:56:17.883Z,13.08
2019-05-20T21:58:49.075Z,13.03
2019-05-20T22:01:20.909Z,13.07
2019-05-20T22:03:52.836Z,13.10
2019-05-20T22:06:24.742Z,13.10
2019-05-20T22:08:56.613Z,13.01
2019-05-20T22:11:28.494Z,13.03
2019-05-20T22:14:00.783Z,13.00
2019-05-20T22:16:32.566Z,12.97
2019-05-20T22:19:04.448Z,12.95
2019-05-20T22:21:48.470Z,12.96
2019-05-20T22:24:20.349Z,12.88
2019-05-20T22:26:52.157Z,12.83
2019-05-20T22:29:24.002Z,12.81
2019-05-20T22:31:55.907Z,12.71
2019-05-20T22:34:27.784Z,12.67
2019-05-20T22:36:59.656Z,12.61
2019-05-20T22:39:31.508Z,12.52
2019-05-20T22:42:03.413Z,12.49
2019-05-20T22:44:35.314Z,12.50
2019-05-20T22:47:06.567Z,12.46
2019-05-20T22:49:38.505Z,12.42
2019-05-20T22:52:09.632Z,12.42
2019-05-20T22:54:41.453Z,12.39
2019-05-20T22:57:13.353Z,12.34
2019-05-20T22:59:45.174Z,12.29
2019-05-20T23:02:17.044Z,12.24
2019-05-20T23:04:49.012Z,12.23
2019-05-20T23:07:20.872Z,12.19
2019-05-20T23:09:52.772Z,12.14
2019-05-20T23:12:24.699Z,12.14
2019-05-20T23:14:56.479Z,12.11
2019-05-20T23:17:28.362Z,12.06
2019-05-20T23:20:00.215Z,12.00
2019-05-20T23:22:32.076Z,11.99
2019-05-20T23:25:03.884Z,12.03
2019-05-20T23:27:35.744Z,12.05
2019-05-20T23:30:08.496Z,12.03
2019-05-20T23:32:40.476Z,12.02
2019-05-20T23:35:13.128Z,11.98
2019-05-20T23:37:44.346Z,11.98
2019-05-20T23:40:15.457Z,11.92
2019-05-20T23:42:47.293Z,11.87
2019-05-20T23:45:19.206Z,11.86
2019-05-20T23:47:51.105Z,11.81
2019-05-20T23:50:22.995Z,11.78
2019-05-20T23:52:54.860Z,11.73
2019-05-20T23:55:28.061Z,11.70
2019-05-20T23:57:59.917Z,11.68
